Time;durP1;ratioP1;P1;durP2;ratioP2;P2;SDS_P1;SDS_P2;PMS_P1;PMS_P2;Temp;Humidity;BMP_temperature;BMP_pressure;BME280_temperature;BME280_humidity;BME280_pressure;Samples;Min_cycle;Max_cycle;Signal;HPM_P1;HPM_P2
2023/03/26 00:01:09;;;;;;;12.23;3.60;;;9.30;99.90;;;;;;6130220;23;20635;-71
2023/03/26 00:03:36;;;;;;;10.27;4.03;;;9.50;99.90;;;;;;6100348;23;20407;-70
2023/03/26 00:06:02;;;;;;;23.90;4.40;;;9.50;99.90;;;;;;6099214;23;20365;-71
2023/03/26 00:08:28;;;;;;;15.90;3.73;;;9.60;99.90;;;;;;6098528;23;20806;-70
2023/03/26 00:10:54;;;;;;;10.93;3.53;;;9.60;99.90;;;;;;6120670;23;20380;-70
2023/03/26 00:13:19;;;;;;;16.07;4.30;;;9.60;99.90;;;;;;6087712;23;20168;-71
2023/03/26 00:15:45;;;;;;;16.90;5.70;;;9.70;99.90;;;;;;6097189;23;20153;-71
2023/03/26 00:18:11;;;;;;;16.73;4.50;;;9.70;99.90;;;;;;6124843;23;20117;-70
2023/03/26 00:20:37;;;;;;;15.73;4.57;;;9.70;99.90;;;;;;6125031;23;20121;-70
2023/03/26 00:23:03;;;;;;;14.67;5.47;;;9.70;99.90;;;;;;6066587;23;20242;-68
2023/03/26 00:25:30;;;;;;;13.73;4.40;;;9.70;99.90;;;;;;6123729;23;20140;-72
2023/03/26 00:27:57;;;;;;;8.13;2.90;;;9.80;99.90;;;;;;6123981;23;20385;-70
2023/03/26 00:30:23;;;;;;;7.50;3.00;;;9.80;99.90;;;;;;6085861;23;20389;-69
2023/03/26 00:32:48;;;;;;;8.60;2.30;;;9.80;99.90;;;;;;6124539;23;20439;-71
2023/03/26 00:35:14;;;;;;;11.50;3.30;;;9.80;99.90;;;;;;6099291;23;20137;-70
2023/03/26 00:37:42;;;;;;;9.17;2.50;;;9.80;99.90;;;;;;6120978;23;20567;-69
2023/03/26 00:40:09;;;;;;;10.57;3.40;;;9.80;99.90;;;;;;6095541;23;20393;-69
2023/03/26 00:42:37;;;;;;;7.23;2.80;;;9.80;99.90;;;;;;6087349;23;20400;-69
2023/03/26 00:45:06;;;;;;;14.03;3.93;;;9.80;99.90;;;;;;6096798;23;20698;-70
2023/03/26 00:47:32;;;;;;;11.80;2.80;;;9.80;99.90;;;;;;6088116;23;20384;-71
2023/03/26 00:49:59;;;;;;;7.80;3.50;;;9.80;99.90;;;;;;6088900;23;20389;-69
2023/03/26 00:52:27;;;;;;;16.73;4.50;;;9.80;99.90;;;;;;6097295;23;20600;-70
2023/03/26 00:54:53;;;;;;;8.17;2.90;;;9.80;99.90;;;;;;6120278;23;20381;-70
2023/03/26 00:57:20;;;;;;;15.27;3.50;;;9.80;99.90;;;;;;6111912;23;20392;-71
2023/03/26 00:59:47;;;;;;;10.60;3.07;;;9.70;99.90;;;;;;6095268;23;20365;-68
2023/03/26 01:02:17;;;;;;;7.77;2.87;;;9.70;99.90;;;;;;6116479;23;20416;-70
2023/03/26 01:04:54;;;;;;;14.77;3.73;;;9.70;99.90;;;;;;6116815;23;20388;-71
2023/03/26 01:07:27;;;;;;;7.50;2.97;;;9.60;99.90;;;;;;6123165;23;20376;-69
2023/03/26 01:09:56;;;;;;;7.33;3.30;;;9.60;99.90;;;;;;6121319;23;20365;-68
2023/03/26 01:12:26;;;;;;;5.87;2.20;;;9.60;99.90;;;;;;6085127;23;20435;-69
2023/03/26 01:14:59;;;;;;;12.10;3.67;;;9.50;99.90;;;;;;6120228;23;20376;-69
2023/03/26 01:17:32;;;;;;;10.07;3.80;;;9.30;99.90;;;;;;6119201;23;20476;-68
2023/03/26 01:20:18;;;;;;;13.47;3.47;;;9.20;99.90;;;;;;6120552;23;20368;-69
2023/03/26 01:22:52;;;;;;;15.33;3.03;;;9.00;99.90;;;;;;6095738;23;20428;-71
2023/03/26 01:25:21;;;;;;;10.60;3.20;;;8.80;99.90;;;;;;6120369;23;20356;-70
2023/03/26 01:27:50;;;;;;;11.87;2.63;;;8.70;99.90;;;;;;6086765;23;20483;-70
2023/03/26 01:30:36;;;;;;;14.20;3.47;;;8.50;99.90;;;;;;6084961;23;20376;-71
2023/03/26 01:33:12;;;;;;;8.20;2.07;;;8.40;99.90;;;;;;6084184;23;20475;-70
2023/03/26 01:35:59;;;;;;;5.50;2.20;;;8.30;99.90;;;;;;6085058;23;20376;-68
2023/03/26 01:38:34;;;;;;;9.70;3.03;;;8.20;99.90;;;;;;6119898;23;20380;-70
2023/03/26 01:41:11;;;;;;;9.73;2.30;;;8.20;99.90;;;;;;6119684;23;20356;-72
2023/03/26 01:43:53;;;;;;;8.73;3.00;;;8.10;99.90;;;;;;6119705;23;20408;-69
2023/03/26 01:46:20;;;;;;;13.57;3.83;;;8.10;99.90;;;;;;6118921;23;20371;-69
2023/03/26 01:48:47;;;;;;;13.23;3.30;;;8.00;99.90;;;;;;6119825;23;20396;-70
2023/03/26 01:51:25;;;;;;;10.30;2.70;;;8.00;99.90;;;;;;6084626;23;20503;-71
2023/03/26 01:53:52;;;;;;;10.63;3.47;;;8.00;99.90;;;;;;6083474;23;20619;-69
2023/03/26 01:56:56;;;;;;;7.60;2.67;;;7.90;99.90;;;;;;6120436;23;20679;-70
2023/03/26 01:59:42;;;;;;;11.97;5.33;;;7.90;99.90;;;;;;6056535;23;20384;-70
2023/03/26 02:02:33;;;;;;;14.20;3.40;;;7.80;99.90;;;;;;6084265;23;20408;-69
2023/03/26 02:05:14;;;;;;;10.67;3.27;;;7.70;99.90;;;;;;6109961;23;20403;-70
2023/03/26 02:07:49;;;;;;;15.30;3.10;;;7.80;99.90;;;;;;6124354;23;20369;-70
2023/03/26 02:10:40;;;;;;;8.73;3.30;;;7.80;99.90;;;;;;6088899;23;20383;-70
2023/03/26 02:13:06;;;;;;;8.17;2.67;;;7.80;99.90;;;;;;6086132;23;20431;-69
2023/03/26 02:15:32;;;;;;;8.20;2.50;;;7.80;99.90;;;;;;6085608;23;20376;-68
2023/03/26 02:17:58;;;;;;;6.83;2.87;;;7.90;99.90;;;;;;6119937;23;20137;-70
2023/03/26 02:20:29;;;;;;;9.50;2.90;;;7.90;99.90;;;;;;6086269;23;20357;-69
2023/03/26 02:22:56;;;;;;;12.33;3.67;;;8.00;99.90;;;;;;6119268;23;20412;-69
2023/03/26 02:25:22;;;;;;;11.80;2.40;;;8.10;99.90;;;;;;6121304;23;20708;-69
2023/03/26 02:27:51;;;;;;;10.87;2.60;;;8.20;99.90;;;;;;6096282;23;20400;-69
2023/03/26 02:30:24;;;;;;;4.00;1.70;;;8.20;99.90;;;;;;6086572;23;20372;-68
2023/03/26 02:32:52;;;;;;;7.00;2.20;;;8.20;99.90;;;;;;6086015;23;20519;-69
2023/03/26 02:35:21;;;;;;;7.03;2.30;;;8.30;99.90;;;;;;6111358;23;20373;-69
2023/03/26 02:37:49;;;;;;;9.83;2.13;;;8.20;99.90;;;;;;6085348;23;20389;-69
2023/03/26 02:40:19;;;;;;;8.20;1.90;;;8.20;99.90;;;;;;6084542;23;20388;-68
2023/03/26 02:42:46;;;;;;;8.23;1.80;;;8.30;99.90;;;;;;6060557;23;20412;-68
2023/03/26 02:45:13;;;;;;;11.97;2.50;;;8.40;99.90;;;;;;6084709;23;20859;-69
2023/03/26 02:47:59;;;;;;;7.30;2.10;;;8.50;99.90;;;;;;6093072;23;20475;-68
2023/03/26 02:50:41;;;;;;;4.77;2.30;;;8.50;99.90;;;;;;6125383;23;20404;-68
2023/03/26 02:53:33;;;;;;;6.73;2.20;;;8.50;99.90;;;;;;6085762;23;20477;-71
2023/03/26 02:56:24;;;;;;;7.10;1.70;;;8.60;99.90;;;;;;6084635;23;20385;-69
2023/03/26 02:59:10;;;;;;;8.00;2.10;;;8.60;99.90;;;;;;6064265;23;20391;-68
2023/03/26 03:01:41;;;;;;;5.80;1.83;;;8.70;99.90;;;;;;6083957;23;20401;-69
2023/03/26 03:04:09;;;;;;;4.40;1.33;;;8.80;99.90;;;;;;6057413;23;20381;-69
2023/03/26 03:06:37;;;;;;;10.40;2.40;;;8.80;99.90;;;;;;6065591;23;20401;-68
2023/03/26 03:09:04;;;;;;;6.30;2.57;;;8.80;99.90;;;;;;6081231;23;20393;-69
2023/03/26 03:11:53;;;;;;;6.37;2.17;;;8.80;99.90;;;;;;6058704;23;20436;-69
2023/03/26 03:14:18;;;;;;;6.70;2.10;;;8.90;99.90;;;;;;6084956;23;20393;-69
2023/03/26 03:16:44;;;;;;;5.70;2.50;;;8.90;99.90;;;;;;6077951;23;20153;-69
2023/03/26 03:19:11;;;;;;;7.07;2.30;;;8.90;99.90;;;;;;6078479;23;20155;-71
2023/03/26 03:21:39;;;;;;;6.90;3.00;;;8.90;99.90;;;;;;6078194;23;20410;-69
2023/03/26 03:24:05;;;;;;;7.57;2.23;;;8.90;99.90;;;;;;6050488;23;20389;-68
2023/03/26 03:26:53;;;;;;;7.33;1.80;;;9.00;99.90;;;;;;6069779;23;20385;-68
2023/03/26 03:29:33;;;;;;;5.63;1.70;;;9.00;99.90;;;;;;6045310;23;20421;-67
2023/03/26 03:32:21;;;;;;;7.50;2.30;;;9.00;99.90;;;;;;6069613;23;20517;-68
2023/03/26 03:34:49;;;;;;;8.57;3.03;;;9.00;99.90;;;;;;6069949;23;20772;-69
2023/03/26 03:37:19;;;;;;;8.93;2.50;;;9.00;99.90;;;;;;6077785;23;20396;-70
2023/03/26 03:39:50;;;;;;;10.00;2.73;;;9.00;99.90;;;;;;6055325;23;20381;-69
2023/03/26 03:42:18;;;;;;;14.40;2.73;;;9.00;99.90;;;;;;6053494;23;20440;-69
2023/03/26 03:44:44;;;;;;;6.83;1.97;;;9.00;99.90;;;;;;6077901;23;20699;-69
2023/03/26 03:47:29;;;;;;;6.70;1.93;;;9.00;99.90;;;;;;6051850;23;20153;-68
2023/03/26 03:49:55;;;;;;;6.90;2.30;;;9.00;99.90;;;;;;6087238;23;20570;-71
2023/03/26 03:52:22;;;;;;;10.70;2.67;;;9.00;99.90;;;;;;6052872;23;20566;-70
2023/03/26 03:54:48;;;;;;;6.37;2.20;;;9.00;99.90;;;;;;6052919;23;20385;-69
2023/03/26 03:57:35;;;;;;;8.10;2.53;;;8.90;99.90;;;;;;6052537;23;20386;-68
2023/03/26 04:00:06;;;;;;;9.13;4.93;;;8.90;99.90;;;;;;6051511;23;20396;-69
2023/03/26 04:02:41;;;;;;;10.40;2.67;;;8.90;99.90;;;;;;6075892;23;20401;-67
2023/03/26 04:05:07;;;;;;;12.03;2.57;;;8.90;99.90;;;;;;6050721;23;20842;-68
2023/03/26 04:07:37;;;;;;;6.80;2.00;;;8.90;99.90;;;;;;6051000;23;20453;-67
2023/03/26 04:10:07;;;;;;;4.63;2.20;;;8.80;99.90;;;;;;6085707;23;20370;-68
2023/03/26 04:13:00;;;;;;;7.97;2.53;;;8.80;99.90;;;;;;6078098;23;20894;-67
2023/03/26 04:15:47;;;;;;;9.50;2.80;;;8.80;99.90;;;;;;6076311;23;20529;-70
2023/03/26 04:18:13;;;;;;;6.47;2.17;;;8.70;99.90;;;;;;6026218;23;20413;-69
2023/03/26 04:20:46;;;;;;;8.73;2.80;;;8.70;99.90;;;;;;6049349;23;20724;-70
2023/03/26 04:23:18;;;;;;;9.23;2.40;;;8.60;99.90;;;;;;6072891;23;20385;-68
2023/03/26 04:25:52;;;;;;;7.90;2.03;;;8.60;99.90;;;;;;6049009;23;20388;-68
2023/03/26 04:28:32;;;;;;;5.10;2.33;;;8.60;99.90;;;;;;6049011;23;20389;-68
2023/03/26 04:31:16;;;;;;;4.63;1.90;;;8.50;99.90;;;;;;6049659;23;20512;-69
2023/03/26 04:33:47;;;;;;;6.10;1.60;;;8.60;99.90;;;;;;6049798;23;20385;-69
2023/03/26 04:36:16;;;;;;;7.83;1.97;;;8.60;99.90;;;;;;6049047;23;20392;-69
2023/03/26 04:38:48;;;;;;;8.83;2.90;;;8.50;99.90;;;;;;6073017;23;20460;-68
2023/03/26 04:41:15;;;;;;;10.50;2.87;;;8.60;99.90;;;;;;6073002;23;20472;-68
2023/03/26 04:44:00;;;;;;;6.40;2.30;;;8.60;99.90;;;;;;6048119;23;20885;-69
2023/03/26 04:46:34;;;;;;;9.90;2.30;;;8.60;99.90;;;;;;6048227;23;20397;-68
2023/03/26 04:49:12;;;;;;;11.37;3.50;;;8.60;99.90;;;;;;6049307;23;20418;-68
2023/03/26 04:51:40;;;;;;;7.50;2.53;;;8.60;99.90;;;;;;6083723;23;20448;-71
2023/03/26 04:54:20;;;;;;;5.10;2.20;;;8.60;99.90;;;;;;6050235;23;20156;-69
2023/03/26 04:57:03;;;;;;;10.23;3.00;;;8.60;99.90;;;;;;6050151;23;20396;-68
2023/03/26 04:59:36;;;;;;;12.70;3.30;;;8.60;99.90;;;;;;6049502;23;20621;-67
2023/03/26 05:02:07;;;;;;;12.33;3.77;;;8.60;99.90;;;;;;6050594;23;20758;-70
2023/03/26 05:04:48;;;;;;;13.80;2.63;;;8.60;99.90;;;;;;6073088;23;20421;-69
2023/03/26 05:07:18;;;;;;;7.73;2.43;;;8.60;99.90;;;;;;6049956;23;20378;-69
2023/03/26 05:09:47;;;;;;;8.53;2.87;;;8.60;99.90;;;;;;6050038;23;20525;-68
2023/03/26 05:12:21;;;;;;;6.67;2.30;;;8.60;99.90;;;;;;6084520;23;20431;-68
2023/03/26 05:14:52;;;;;;;8.90;2.23;;;8.60;99.90;;;;;;6051102;23;20397;-68
2023/03/26 05:17:33;;;;;;;6.03;1.53;;;8.50;99.90;;;;;;6050385;23;20389;-68
2023/03/26 05:20:03;;;;;;;5.53;1.40;;;8.50;99.90;;;;;;6073877;23;20692;-68
2023/03/26 05:22:29;;;;;;;4.87;1.90;;;8.50;99.90;;;;;;6073272;23;20413;-68
2023/03/26 05:25:18;;;;;;;6.20;1.70;;;8.60;99.90;;;;;;6050238;23;20654;-70
2023/03/26 05:27:45;;;;;;;11.60;3.40;;;8.60;99.90;;;;;;6050121;23;20448;-67
2023/03/26 05:30:15;;;;;;;7.27;3.17;;;8.60;99.90;;;;;;6084775;23;20462;-68
2023/03/26 05:32:47;;;;;;;11.00;2.83;;;8.60;99.90;;;;;;6050531;23;20425;-68
2023/03/26 05:35:15;;;;;;;6.40;2.00;;;8.60;99.90;;;;;;6073348;23;20392;-69
2023/03/26 05:37:44;;;;;;;4.33;1.53;;;8.60;99.90;;;;;;6048712;23;20386;-68
2023/03/26 05:40:13;;;;;;;3.60;1.70;;;8.60;99.90;;;;;;6050040;23;20381;-68
2023/03/26 05:42:50;;;;;;;7.20;2.33;;;8.60;99.90;;;;;;6026696;23;20409;-68
2023/03/26 05:45:34;;;;;;;11.67;2.27;;;8.60;99.90;;;;;;6075857;23;20399;-68
2023/03/26 05:48:11;;;;;;;5.30;2.00;;;8.60;99.90;;;;;;6073681;23;20385;-68
2023/03/26 05:50:36;;;;;;;6.80;1.77;;;8.60;99.90;;;;;;6025598;23;20388;-68
2023/03/26 05:53:03;;;;;;;2.90;1.20;;;8.50;99.90;;;;;;6099630;23;20255;-67
2023/03/26 05:55:39;;;;;;;6.53;2.10;;;8.40;99.90;;;;;;6115757;23;20364;-69
2023/03/26 05:58:29;;;;;;;11.33;2.90;;;8.40;99.90;;;;;;6118300;23;20404;-68
2023/03/26 06:01:18;;;;;;;6.63;2.30;;;8.20;99.90;;;;;;6119346;23;20424;-68
2023/03/26 06:04:22;;;;;;;12.67;2.93;;;8.20;99.90;;;;;;6051242;23;20587;-68
2023/03/26 06:07:11;;;;;;;13.10;3.00;;;8.10;99.90;;;;;;6041089;23;20393;-68
2023/03/26 06:09:40;;;;;;;13.43;3.07;;;8.00;99.90;;;;;;6021173;23;20871;-68
2023/03/26 06:12:08;;;;;;;9.30;2.80;;;7.90;99.90;;;;;;6044712;23;20502;-69
2023/03/26 06:14:35;;;;;;;8.83;2.63;;;7.90;99.90;;;;;;6018974;23;20398;-67
2023/03/26 06:17:11;;;;;;;11.17;3.53;;;7.90;99.90;;;;;;6019602;23;20661;-68
2023/03/26 06:19:57;;;;;;;11.20;3.53;;;7.90;99.90;;;;;;6009288;23;20799;-67
2023/03/26 06:22:32;;;;;;;8.53;3.60;;;7.80;99.90;;;;;;6020008;23;20850;-69
2023/03/26 06:25:13;;;;;;;10.33;3.60;;;7.90;99.90;;;;;;6019436;23;20433;-67
2023/03/26 06:28:05;;;;;;;8.13;2.63;;;7.80;99.90;;;;;;6018573;23;20425;-69
2023/03/26 06:30:47;;;;;;;12.37;3.90;;;7.80;99.90;;;;;;6020139;23;20393;-69
2023/03/26 06:33:30;;;;;;;6.83;3.10;;;7.80;99.90;;;;;;6019426;23;20386;-67
2023/03/26 06:35:58;;;;;;;14.23;4.03;;;7.80;99.90;;;;;;6068285;23;20380;-69
2023/03/26 06:38:24;;;;;;;13.30;3.17;;;7.70;99.90;;;;;;6077676;23;20392;-67
2023/03/26 06:40:50;;;;;;;7.30;2.77;;;7.80;99.90;;;;;;6112020;23;20366;-68
2023/03/26 06:43:24;;;;;;;7.53;2.90;;;7.70;99.90;;;;;;6090170;23;20136;-67
2023/03/26 06:46:15;;;;;;;14.97;3.03;;;7.80;99.90;;;;;;6077995;23;20385;-67
2023/03/26 06:48:59;;;;;;;9.63;3.03;;;7.80;99.90;;;;;;6103383;23;20452;-67
2023/03/26 06:51:40;;;;;;;7.17;2.70;;;7.80;99.90;;;;;;6116202;23;20420;-67
2023/03/26 06:54:26;;;;;;;18.10;3.77;;;7.80;99.90;;;;;;6105827;23;20626;-67
2023/03/26 06:57:03;;;;;;;11.13;3.47;;;7.80;99.90;;;;;;6083356;23;20368;-70
2023/03/26 07:00:05;;;;;;;8.60;3.03;;;7.80;99.90;;;;;;6105797;23;20385;-68
2023/03/26 07:02:49;;;;;;;11.47;3.70;;;7.80;99.90;;;;;;6115769;23;20395;-67
2023/03/26 07:05:33;;;;;;;8.80;2.87;;;7.80;99.90;;;;;;6116416;23;20388;-67
2023/03/26 07:08:17;;;;;;;6.87;2.67;;;7.80;99.90;;;;;;6114879;23;20395;-68
2023/03/26 07:11:01;;;;;;;11.83;4.10;;;7.80;99.90;;;;;;6115264;23;20388;-69
2023/03/26 07:13:46;;;;;;;15.50;3.47;;;7.80;99.90;;;;;;6115945;23;20363;-68
2023/03/26 07:16:30;;;;;;;12.33;4.93;;;7.80;99.90;;;;;;6115496;23;20470;-68
2023/03/26 07:19:07;;;;;;;12.23;3.80;;;7.80;99.90;;;;;;6105240;23;20372;-68
2023/03/26 07:21:36;;;;;;;10.73;3.30;;;7.70;99.90;;;;;;6080544;23;20500;-67
2023/03/26 07:24:13;;;;;;;11.40;2.63;;;7.70;99.90;;;;;;6080763;23;20412;-67
2023/03/26 07:27:18;;;;;;;15.07;3.10;;;7.70;99.90;;;;;;6079268;23;20855;-67
2023/03/26 07:30:14;;;;;;;13.53;3.67;;;7.70;99.90;;;;;;6116547;23;20372;-69
2023/03/26 07:33:22;;;;;;;13.37;3.60;;;7.70;99.90;;;;;;6081208;23;20887;-69
2023/03/26 07:36:13;;;;;;;13.43;3.63;;;7.70;99.90;;;;;;6114048;23;20381;-67
2023/03/26 07:39:11;;;;;;;10.30;2.93;;;7.60;99.90;;;;;;6114713;23;20468;-68
2023/03/26 07:42:07;;;;;;;15.63;3.60;;;7.60;99.90;;;;;;6081053;23;20408;-68
2023/03/26 07:45:00;;;;;;;13.53;3.43;;;7.50;99.90;;;;;;6115337;23;20372;-68
2023/03/26 07:47:38;;;;;;;13.70;3.03;;;7.50;99.90;;;;;;6083449;23;20395;-69
2023/03/26 07:50:24;;;;;;;11.33;3.87;;;7.50;99.90;;;;;;6080949;23;20463;-67
2023/03/26 07:53:07;;;;;;;9.30;3.70;;;7.50;99.90;;;;;;6115721;23;20431;-68
2023/03/26 07:56:00;;;;;;;14.03;4.90;;;7.40;99.90;;;;;;6111023;23;20392;-68
2023/03/26 07:58:54;;;;;;;13.87;3.27;;;7.50;99.90;;;;;;6079211;23;20389;-68
2023/03/26 08:01:48;;;;;;;14.17;4.07;;;7.40;99.90;;;;;;6115366;23;20479;-68
2023/03/26 08:05:00;;;;;;;14.27;3.40;;;7.40;99.90;;;;;;6079735;23;20393;-69
2023/03/26 08:08:23;;;;;;;13.97;3.77;;;7.40;99.90;;;;;;6115312;23;20413;-67
2023/03/26 08:11:19;;;;;;;7.90;3.17;;;7.40;99.90;;;;;;6080982;23;20419;-69
2023/03/26 08:14:10;;;;;;;5.07;2.47;;;7.40;99.90;;;;;;6082142;23;20392;-68
2023/03/26 08:16:59;;;;;;;9.40;3.20;;;7.50;99.90;;;;;;6117345;23;20368;-67
2023/03/26 08:19:43;;;;;;;9.57;3.30;;;7.40;99.90;;;;;;6105718;23;20380;-68
2023/03/26 08:22:25;;;;;;;11.87;3.73;;;7.40;99.90;;;;;;6090311;23;20459;-68
2023/03/26 08:25:18;;;;;;;8.30;3.07;;;7.40;99.90;;;;;;6056268;23;20380;-68
2023/03/26 08:28:11;;;;;;;6.63;2.47;;;7.40;99.90;;;;;;6091721;23;20456;-71
2023/03/26 08:30:36;;;;;;;7.80;2.57;;;7.40;99.90;;;;;;6117853;23;20371;-68
2023/03/26 08:33:17;;;;;;;6.33;3.30;;;7.40;99.90;;;;;;6081312;23;20452;-67
2023/03/26 08:35:44;;;;;;;6.63;3.23;;;7.40;99.90;;;;;;6108080;23;20148;-70
2023/03/26 08:38:12;;;;;;;7.00;3.00;;;7.40;99.90;;;;;;6116899;23;20385;-68
2023/03/26 08:41:00;;;;;;;7.10;2.33;;;7.50;99.90;;;;;;6116680;23;20396;-70
2023/03/26 08:43:35;;;;;;;7.07;3.23;;;7.50;99.90;;;;;;6116613;23;20424;-68
2023/03/26 08:46:14;;;;;;;7.57;3.47;;;7.50;99.90;;;;;;6116288;23;20384;-69
2023/03/26 08:48:59;;;;;;;3.93;2.23;;;7.50;99.90;;;;;;6118254;23;20361;-68
2023/03/26 08:51:53;;;;;;;5.33;2.10;;;7.50;99.90;;;;;;6083937;23;20427;-69
2023/03/26 08:54:29;;;;;;;7.30;2.27;;;7.60;99.90;;;;;;6095927;23;20377;-70
2023/03/26 08:57:30;;;;;;;5.87;2.20;;;7.60;99.90;;;;;;6086459;23;20396;-69
2023/03/26 09:00:14;;;;;;;7.73;3.30;;;7.50;99.90;;;;;;6027998;23;20383;-68
2023/03/26 09:02:59;;;;;;;6.20;2.87;;;7.50;99.90;;;;;;6019487;23;20410;-69
2023/03/26 09:06:02;;;;;;;9.37;3.73;;;7.40;99.90;;;;;;6026992;23;20474;-68
2023/03/26 09:09:15;;;;;;;7.00;2.70;;;7.40;99.90;;;;;;6028677;23;20629;-68
2023/03/26 09:11:56;;;;;;;7.90;3.60;;;7.50;99.90;;;;;;6024293;23;20431;-69
2023/03/26 09:14:51;;;;;;;5.60;2.30;;;7.40;99.90;;;;;;6027847;23;20363;-68
2023/03/26 09:17:46;;;;;;;7.20;2.50;;;7.30;99.90;;;;;;6002504;23;20375;-69
2023/03/26 09:20:47;;;;;;;9.57;3.20;;;7.30;99.90;;;;;;6017086;23;20387;-67
2023/03/26 09:23:42;;;;;;;8.23;2.80;;;7.30;99.90;;;;;;6030855;23;20463;-68
2023/03/26 09:26:13;;;;;;;4.80;2.50;;;7.20;99.90;;;;;;6023471;23;20395;-68
2023/03/26 09:29:19;;;;;;;3.97;1.90;;;7.20;99.90;;;;;;6029714;23;20380;-68
2023/03/26 09:32:20;;;;;;;5.10;1.93;;;7.10;99.90;;;;;;6019440;23;20676;-69
2023/03/26 09:35:10;;;;;;;4.90;1.97;;;7.10;99.90;;;;;;6027595;23;20420;-69
2023/03/26 09:37:58;;;;;;;5.67;1.60;;;7.10;99.90;;;;;;6102387;23;21119;-69
2023/03/26 09:40:52;;;;;;;3.80;2.37;;;7.10;99.90;;;;;;6105689;23;20365;-68
2023/03/26 09:43:53;;;;;;;11.57;2.60;;;7.00;99.90;;;;;;6117617;23;20376;-68
2023/03/26 09:46:45;;;;;;;3.70;1.43;;;7.00;99.90;;;;;;6105548;23;20377;-69
2023/03/26 09:49:41;;;;;;;6.87;1.93;;;7.00;99.90;;;;;;6080015;23;20385;-68
2023/03/26 09:52:16;;;;;;;8.93;2.37;;;7.10;99.90;;;;;;6089227;23;20424;-68
2023/03/26 09:54:58;;;;;;;4.33;2.60;;;7.10;99.90;;;;;;6079867;23;20392;-68
2023/03/26 09:57:57;;;;;;;9.97;2.60;;;7.10;99.90;;;;;;6090558;23;20376;-68
2023/03/26 10:00:59;;;;;;;10.57;2.73;;;7.30;99.90;;;;;;6114571;23;20824;-69
2023/03/26 10:03:56;;;;;;;8.30;2.90;;;7.30;99.90;;;;;;6116512;23;20375;-69
2023/03/26 10:06:48;;;;;;;8.40;2.90;;;7.40;99.90;;;;;;6116262;23;20381;-69
2023/03/26 10:09:49;;;;;;;9.00;2.23;;;7.40;99.90;;;;;;6105192;23;20480;-70
2023/03/26 10:12:31;;;;;;;6.00;2.40;;;7.50;99.90;;;;;;6116855;23;20423;-69
2023/03/26 10:15:03;;;;;;;2.77;2.20;;;7.50;99.90;;;;;;6090115;23;20407;-69
2023/03/26 10:17:57;;;;;;;5.60;2.20;;;7.60;99.90;;;;;;6116481;23;20431;-70
2023/03/26 10:20:51;;;;;;;5.53;3.00;;;7.50;99.90;;;;;;6026803;23;20573;-69
2023/03/26 10:23:45;;;;;;;3.27;2.30;;;7.50;99.90;;;;;;6019391;23;20415;-69
2023/03/26 10:26:49;;;;;;;5.93;2.10;;;7.50;99.90;;;;;;6023498;23;20757;-68
2023/03/26 10:29:49;;;;;;;5.43;2.27;;;7.50;99.90;;;;;;6028719;23;20457;-69
2023/03/26 10:32:47;;;;;;;6.80;2.80;;;7.60;99.90;;;;;;6017647;23;20768;-69
2023/03/26 10:35:49;;;;;;;5.13;2.20;;;7.60;99.90;;;;;;6003150;23;20383;-68
2023/03/26 10:38:51;;;;;;;4.10;2.73;;;7.60;99.90;;;;;;6021947;23;20390;-68
2023/03/26 10:41:54;;;;;;;4.60;2.40;;;7.70;99.90;;;;;;5999628;23;20458;-68
2023/03/26 10:44:50;;;;;;;6.37;2.70;;;7.70;99.90;;;;;;6022641;23;20402;-69
2023/03/26 10:47:31;;;;;;;9.80;2.20;;;7.80;99.90;;;;;;6036371;23;20438;-68
2023/03/26 10:50:34;;;;;;;5.63;2.03;;;8.00;99.90;;;;;;6024223;23;20391;-69
2023/03/26 10:53:15;;;;;;;4.17;2.70;;;8.10;99.90;;;;;;6023457;23;20438;-69
2023/03/26 10:55:45;;;;;;;5.00;2.50;;;8.20;99.90;;;;;;6026551;23;20544;-69
2023/03/26 10:58:25;;;;;;;3.53;2.30;;;8.20;99.90;;;;;;6105058;23;20765;-71
2023/03/26 11:01:10;;;;;;;3.17;1.83;;;8.30;99.90;;;;;;6120678;23;20395;-69
2023/03/26 11:03:50;;;;;;;4.43;2.20;;;8.40;99.90;;;;;;6094201;23;20844;-69
2023/03/26 11:06:44;;;;;;;5.20;2.37;;;8.50;99.90;;;;;;6064511;23;20487;-69
2023/03/26 11:09:16;;;;;;;6.23;2.30;;;8.50;99.90;;;;;;6084644;23;20451;-70
2023/03/26 11:12:05;;;;;;;2.60;1.83;;;8.50;99.90;;;;;;6119742;23;20845;-68
2023/03/26 11:14:48;;;;;;;3.63;2.47;;;8.60;99.90;;;;;;6123270;23;20377;-69
2023/03/26 11:17:24;;;;;;;9.00;1.80;;;8.70;99.90;;;;;;6095604;23;20627;-70
2023/03/26 11:20:12;;;;;;;1.90;1.63;;;8.80;99.90;;;;;;6119665;23;20384;-68
2023/03/26 11:22:47;;;;;;;7.87;2.47;;;8.80;99.90;;;;;;6085798;23;20408;-70
2023/03/26 11:25:24;;;;;;;5.60;2.23;;;8.80;99.90;;;;;;6061512;23;20380;-68
2023/03/26 11:28:08;;;;;;;4.83;2.10;;;8.70;99.90;;;;;;6086745;23;20395;-69
2023/03/26 11:30:57;;;;;;;4.13;1.90;;;8.70;99.90;;;;;;6096035;23;20674;-69
2023/03/26 11:33:56;;;;;;;5.40;2.30;;;8.70;99.90;;;;;;6111329;23;20428;-70
2023/03/26 11:36:28;;;;;;;6.60;2.50;;;8.70;99.90;;;;;;6108334;23;20400;-68
2023/03/26 11:38:58;;;;;;;3.97;2.30;;;8.70;99.90;;;;;;6086260;23;20385;-71
2023/03/26 11:41:31;;;;;;;5.70;3.10;;;8.70;99.90;;;;;;6086092;23;20447;-69
2023/03/26 11:44:28;;;;;;;5.00;2.57;;;8.80;99.90;;;;;;6128097;23;20376;-70
2023/03/26 11:47:03;;;;;;;4.40;2.97;;;8.90;99.90;;;;;;6086931;23;20404;-72
2023/03/26 11:49:32;;;;;;;6.33;2.50;;;8.90;99.90;;;;;;6124550;23;20439;-69
2023/03/26 11:51:59;;;;;;;5.23;2.30;;;8.90;99.90;;;;;;6095414;23;20716;-69
2023/03/26 11:54:26;;;;;;;7.53;2.90;;;8.90;99.90;;;;;;6120867;23;20137;-69
2023/03/26 11:57:19;;;;;;;7.27;2.57;;;8.90;99.90;;;;;;6087938;23;20377;-69
2023/03/26 12:00:03;;;;;;;5.47;2.47;;;8.90;99.90;;;;;;6121730;23;20437;-69
2023/03/26 12:02:39;;;;;;;8.03;2.90;;;8.90;99.90;;;;;;6110186;23;20412;-70
2023/03/26 12:05:32;;;;;;;3.90;2.40;;;8.90;99.90;;;;;;6121296;23;20440;-69
2023/03/26 12:08:16;;;;;;;4.20;3.07;;;8.90;99.90;;;;;;6083596;23;20392;-69
2023/03/26 12:10:42;;;;;;;6.10;2.83;;;8.90;99.90;;;;;;6061833;23;20467;-69
2023/03/26 12:13:41;;;;;;;5.77;2.23;;;8.90;99.90;;;;;;6084484;23;20445;-69
2023/03/26 12:16:09;;;;;;;5.13;2.30;;;9.00;99.90;;;;;;6120313;23;20439;-68
2023/03/26 12:18:38;;;;;;;3.60;2.40;;;9.10;99.90;;;;;;6118634;23;20405;-69
2023/03/26 12:21:16;;;;;;;5.33;2.17;;;9.20;99.90;;;;;;6120002;23;20373;-68
2023/03/26 12:24:05;;;;;;;3.00;1.60;;;9.30;99.90;;;;;;6120080;23;20404;-69
2023/03/26 12:26:41;;;;;;;4.50;2.23;;;9.40;99.90;;;;;;6084827;23;20397;-68
2023/03/26 12:29:16;;;;;;;6.13;2.10;;;9.40;99.90;;;;;;6128269;23;20412;-71
2023/03/26 12:31:55;;;;;;;5.53;2.50;;;9.40;99.90;;;;;;6083420;23;20420;-71
2023/03/26 12:34:33;;;;;;;3.40;2.50;;;9.30;99.90;;;;;;6119262;23;20437;-69
2023/03/26 12:37:00;;;;;;;3.47;1.83;;;9.30;99.90;;;;;;6112078;23;20472;-69
2023/03/26 12:39:43;;;;;;;2.33;1.70;;;9.20;99.90;;;;;;6092934;23;20416;-69
2023/03/26 12:42:27;;;;;;;2.67;2.00;;;9.10;99.90;;;;;;6119077;23;20404;-70
2023/03/26 12:44:56;;;;;;;3.50;2.20;;;9.20;99.90;;;;;;6119665;23;20373;-69
2023/03/26 12:47:26;;;;;;;2.47;1.80;;;9.20;99.90;;;;;;6087771;23;20376;-71
2023/03/26 12:49:52;;;;;;;3.80;1.60;;;9.20;99.90;;;;;;6121117;23;20443;-70
2023/03/26 12:52:26;;;;;;;2.00;1.67;;;9.20;99.90;;;;;;6120843;23;20428;-70
2023/03/26 12:54:59;;;;;;;3.17;1.97;;;9.20;99.90;;;;;;6083906;23;20712;-69
2023/03/26 12:57:31;;;;;;;2.10;1.30;;;9.20;99.90;;;;;;6121777;23;20699;-71
2023/03/26 13:00:20;;;;;;;3.33;2.23;;;9.20;99.90;;;;;;6121146;23;20368;-68
2023/03/26 13:03:24;;;;;;;2.53;1.50;;;9.20;99.90;;;;;;6119769;23;20397;-71
2023/03/26 13:06:16;;;;;;;4.13;2.20;;;9.00;99.90;;;;;;6083026;23;20387;-68
2023/03/26 13:08:51;;;;;;;2.10;1.90;;;8.90;99.90;;;;;;6084334;23;20435;-68
2023/03/26 13:11:44;;;;;;;4.87;4.30;;;8.80;99.90;;;;;;6120455;23;20391;-71
2023/03/26 13:14:35;;;;;;;3.03;2.73;;;8.70;99.90;;;;;;6087558;23;20384;-70
2023/03/26 13:17:22;;;;;;;2.83;2.23;;;8.60;99.90;;;;;;6083872;23;20384;-70
2023/03/26 13:20:11;;;;;;;3.93;2.70;;;8.70;99.90;;;;;;6123301;23;20658;-69
2023/03/26 13:22:52;;;;;;;5.47;2.80;;;8.90;99.90;;;;;;6117321;23;20493;-68
2023/03/26 13:25:38;;;;;;;4.13;2.80;;;9.00;99.90;;;;;;6084073;23;20388;-70
2023/03/26 13:28:24;;;;;;;5.40;2.90;;;9.10;99.90;;;;;;6121009;23;20390;-71
2023/03/26 13:31:12;;;;;;;4.97;3.17;;;9.10;99.90;;;;;;6120643;23;20399;-69
2023/03/26 13:33:39;;;;;;;7.50;2.87;;;9.00;99.90;;;;;;6120659;23;20400;-67
2023/03/26 13:36:34;;;;;;;7.90;3.80;;;8.90;99.90;;;;;;6085904;23;20460;-69
2023/03/26 13:39:12;;;;;;;5.37;3.20;;;8.90;99.90;;;;;;6084667;23;20378;-69
2023/03/26 13:42:04;;;;;;;4.80;3.00;;;9.00;99.90;;;;;;6121540;23;20392;-70
2023/03/26 13:44:58;;;;;;;10.23;4.87;;;9.00;99.90;;;;;;6084609;23;20373;-71
2023/03/26 13:47:28;;;;;;;8.30;4.40;;;9.00;99.90;;;;;;6088908;23;20389;-70
2023/03/26 13:49:59;;;;;;;4.50;3.37;;;8.90;99.90;;;;;;6120765;23;20392;-69
2023/03/26 13:52:27;;;;;;;5.13;3.70;;;8.90;99.90;;;;;;6101209;23;20428;-71
2023/03/26 13:54:55;;;;;;;10.43;5.40;;;8.90;99.90;;;;;;6123275;23;20373;-69
2023/03/26 13:57:34;;;;;;;6.37;4.50;;;8.90;99.90;;;;;;6122867;23;20360;-70